sensor_id;sensor_type;location;lat;lon;timestamp;temperature;humidity
65707;SHT31;52423;43.512;5.220;2023-06-26T00:00:11;22.88;71.35
65707;SHT31;52423;43.512;5.220;2023-06-26T00:02:37;22.91;71.15
65707;SHT31;52423;43.512;5.220;2023-06-26T00:05:02;22.95;70.97
65707;SHT31;52423;43.512;5.220;2023-06-26T00:07:29;22.86;70.91
65707;SHT31;52423;43.512;5.220;2023-06-26T00:09:55;22.69;71.24
65707;SHT31;52423;43.512;5.220;2023-06-26T00:12:20;22.68;71.61
65707;SHT31;52423;43.512;5.220;2023-06-26T00:14:46;22.64;71.76
65707;SHT31;52423;43.512;5.220;2023-06-26T00:17:11;22.64;71.67
65707;SHT31;52423;43.512;5.220;2023-06-26T00:19:37;22.61;71.58
65707;SHT31;52423;43.512;5.220;2023-06-26T00:22:02;22.64;71.64
65707;SHT31;52423;43.512;5.220;2023-06-26T00:24:28;22.93;70.69
65707;SHT31;52423;43.512;5.220;2023-06-26T00:26:53;22.85;70.98
65707;SHT31;52423;43.512;5.220;2023-06-26T00:29:18;22.73;71.11
65707;SHT31;52423;43.512;5.220;2023-06-26T00:31:44;22.61;71.33
65707;SHT31;52423;43.512;5.220;2023-06-26T00:34:09;22.54;71.73
65707;SHT31;52423;43.512;5.220;2023-06-26T00:36:35;22.82;70.89
65707;SHT31;52423;43.512;5.220;2023-06-26T00:39:00;22.85;71.08
65707;SHT31;52423;43.512;5.220;2023-06-26T00:41:26;22.77;71.17
65707;SHT31;52423;43.512;5.220;2023-06-26T00:43:51;22.76;71.51
65707;SHT31;52423;43.512;5.220;2023-06-26T00:46:16;22.65;71.57
65707;SHT31;52423;43.512;5.220;2023-06-26T00:48:44;22.66;71.79
65707;SHT31;52423;43.512;5.220;2023-06-26T00:51:10;22.72;71.41
65707;SHT31;52423;43.512;5.220;2023-06-26T00:53:35;22.61;71.54
65707;SHT31;52423;43.512;5.220;2023-06-26T00:56:05;22.56;71.66
65707;SHT31;52423;43.512;5.220;2023-06-26T00:58:30;22.56;71.39
65707;SHT31;52423;43.512;5.220;2023-06-26T01:00:56;22.52;71.65
65707;SHT31;52423;43.512;5.220;2023-06-26T01:03:25;22.44;71.83
65707;SHT31;52423;43.512;5.220;2023-06-26T01:05:56;22.40;72.02
65707;SHT31;52423;43.512;5.220;2023-06-26T01:08:22;22.37;72.08
65707;SHT31;52423;43.512;5.220;2023-06-26T01:10:48;22.24;72.43
65707;SHT31;52423;43.512;5.220;2023-06-26T01:13:15;22.24;72.58
65707;SHT31;52423;43.512;5.220;2023-06-26T01:15:41;22.18;72.74
65707;SHT31;52423;43.512;5.220;2023-06-26T01:18:07;22.21;72.34
65707;SHT31;52423;43.512;5.220;2023-06-26T01:20:36;22.27;72.31
65707;SHT31;52423;43.512;5.220;2023-06-26T01:23:22;22.28;71.92
65707;SHT31;52423;43.512;5.220;2023-06-26T01:28:19;22.13;72.72
65707;SHT31;52423;43.512;5.220;2023-06-26T01:30:45;22.10;72.74
65707;SHT31;52423;43.512;5.220;2023-06-26T01:33:12;22.05;72.90
65707;SHT31;52423;43.512;5.220;2023-06-26T01:35:39;22.00;72.85
65707;SHT31;52423;43.512;5.220;2023-06-26T01:38:16;21.94;72.84
65707;SHT31;52423;43.512;5.220;2023-06-26T01:40:42;22.07;72.66
65707;SHT31;52423;43.512;5.220;2023-06-26T01:43:18;22.08;72.87
65707;SHT31;52423;43.512;5.220;2023-06-26T01:45:50;22.00;73.04
65707;SHT31;52423;43.512;5.220;2023-06-26T01:48:22;22.11;72.30
65707;SHT31;52423;43.512;5.220;2023-06-26T01:50:51;22.05;72.74
65707;SHT31;52423;43.512;5.220;2023-06-26T01:53:18;22.05;73.02
65707;SHT31;52423;43.512;5.220;2023-06-26T01:55:54;22.20;72.49
65707;SHT31;52423;43.512;5.220;2023-06-26T01:58:24;22.08;72.92
65707;SHT31;52423;43.512;5.220;2023-06-26T02:00:50;22.03;72.91
65707;SHT31;52423;43.512;5.220;2023-06-26T02:03:15;22.14;72.76
65707;SHT31;52423;43.512;5.220;2023-06-26T02:05:41;22.10;72.65
65707;SHT31;52423;43.512;5.220;2023-06-26T02:08:08;22.13;72.76
65707;SHT31;52423;43.512;5.220;2023-06-26T02:10:33;22.15;72.39
65707;SHT31;52423;43.512;5.220;2023-06-26T02:13:00;22.18;72.01
65707;SHT31;52423;43.512;5.220;2023-06-26T02:15:25;22.14;72.27
65707;SHT31;52423;43.512;5.220;2023-06-26T02:17:51;22.20;71.99
65707;SHT31;52423;43.512;5.220;2023-06-26T02:20:16;22.05;72.28
65707;SHT31;52423;43.512;5.220;2023-06-26T02:22:42;22.04;72.29
65707;SHT31;52423;43.512;5.220;2023-06-26T02:25:08;22.01;72.44
65707;SHT31;52423;43.512;5.220;2023-06-26T02:27:34;21.94;72.52
65707;SHT31;52423;43.512;5.220;2023-06-26T02:30:00;21.94;72.51
65707;SHT31;52423;43.512;5.220;2023-06-26T02:32:25;21.80;73.09
65707;SHT31;52423;43.512;5.220;2023-06-26T02:34:50;21.94;72.61
65707;SHT31;52423;43.512;5.220;2023-06-26T02:37:19;21.82;72.42
65707;SHT31;52423;43.512;5.220;2023-06-26T02:39:44;21.79;72.79
65707;SHT31;52423;43.512;5.220;2023-06-26T02:42:10;22.00;71.93
65707;SHT31;52423;43.512;5.220;2023-06-26T02:44:35;22.04;71.77
65707;SHT31;52423;43.512;5.220;2023-06-26T02:47:01;21.82;72.55
65707;SHT31;52423;43.512;5.220;2023-06-26T02:49:26;21.97;71.49
65707;SHT31;52423;43.512;5.220;2023-06-26T02:51:52;22.01;71.44
65707;SHT31;52423;43.512;5.220;2023-06-26T02:54:17;22.04;71.12
65707;SHT31;52423;43.512;5.220;2023-06-26T02:56:42;22.05;71.09
65707;SHT31;52423;43.512;5.220;2023-06-26T02:59:08;22.05;71.27
65707;SHT31;52423;43.512;5.220;2023-06-26T03:01:33;21.84;71.88
65707;SHT31;52423;43.512;5.220;2023-06-26T03:03:59;21.93;71.25
65707;SHT31;52423;43.512;5.220;2023-06-26T03:06:28;21.82;71.68
65707;SHT31;52423;43.512;5.220;2023-06-26T03:08:54;21.89;71.52
65707;SHT31;52423;43.512;5.220;2023-06-26T03:11:19;21.79;71.43
65707;SHT31;52423;43.512;5.220;2023-06-26T03:13:44;21.82;71.67
65707;SHT31;52423;43.512;5.220;2023-06-26T03:16:10;21.80;71.59
65707;SHT31;52423;43.512;5.220;2023-06-26T03:18:35;21.87;70.25
65707;SHT31;52423;43.512;5.220;2023-06-26T03:21:01;21.92;70.28
65707;SHT31;52423;43.512;5.220;2023-06-26T03:23:26;21.90;70.51
65707;SHT31;52423;43.512;5.220;2023-06-26T03:25:52;21.98;69.75
65707;SHT31;52423;43.512;5.220;2023-06-26T03:28:18;22.00;70.42
65707;SHT31;52423;43.512;5.220;2023-06-26T03:30:43;21.92;70.32
65707;SHT31;52423;43.512;5.220;2023-06-26T03:33:09;22.00;70.25
65707;SHT31;52423;43.512;5.220;2023-06-26T03:35:34;22.18;69.40
65707;SHT31;52423;43.512;5.220;2023-06-26T03:38:00;22.17;69.78
65707;SHT31;52423;43.512;5.220;2023-06-26T03:40:26;22.17;69.47
65707;SHT31;52423;43.512;5.220;2023-06-26T03:42:52;22.27;68.81
65707;SHT31;52423;43.512;5.220;2023-06-26T03:45:18;22.42;68.20
65707;SHT31;52423;43.512;5.220;2023-06-26T03:47:44;22.52;68.15
65707;SHT31;52423;43.512;5.220;2023-06-26T03:50:12;22.59;68.43
65707;SHT31;52423;43.512;5.220;2023-06-26T03:52:37;22.52;68.72
65707;SHT31;52423;43.512;5.220;2023-06-26T03:55:03;22.44;69.08
65707;SHT31;52423;43.512;5.220;2023-06-26T03:57:28;22.20;69.85
65707;SHT31;52423;43.512;5.220;2023-06-26T03:59:54;22.13;69.67
65707;SHT31;52423;43.512;5.220;2023-06-26T04:02:19;22.27;69.40
65707;SHT31;52423;43.512;5.220;2023-06-26T04:04:45;22.28;69.29
65707;SHT31;52423;43.512;5.220;2023-06-26T04:07:10;22.22;69.35
65707;SHT31;52423;43.512;5.220;2023-06-26T04:09:36;22.27;69.11
65707;SHT31;52423;43.512;5.220;2023-06-26T04:12:01;22.31;69.13
65707;SHT31;52423;43.512;5.220;2023-06-26T04:14:27;22.44;68.35
65707;SHT31;52423;43.512;5.220;2023-06-26T04:16:52;22.48;68.49
65707;SHT31;52423;43.512;5.220;2023-06-26T04:19:18;22.54;68.53
65707;SHT31;52423;43.512;5.220;2023-06-26T04:21:43;22.51;68.57
65707;SHT31;52423;43.512;5.220;2023-06-26T04:24:09;22.22;69.59
65707;SHT31;52423;43.512;5.220;2023-06-26T04:26:34;22.27;69.23
65707;SHT31;52423;43.512;5.220;2023-06-26T04:29:00;22.21;69.69
65707;SHT31;52423;43.512;5.220;2023-06-26T04:31:26;22.21;69.88
65707;SHT31;52423;43.512;5.220;2023-06-26T04:33:51;22.14;70.14
65707;SHT31;52423;43.512;5.220;2023-06-26T04:36:20;21.97;70.57
65707;SHT31;52423;43.512;5.220;2023-06-26T04:38:45;21.89;70.83
65707;SHT31;52423;43.512;5.220;2023-06-26T04:41:11;22.05;70.48
65707;SHT31;52423;43.512;5.220;2023-06-26T04:43:36;21.79;71.34
65707;SHT31;52423;43.512;5.220;2023-06-26T04:46:02;21.74;71.66
65707;SHT31;52423;43.512;5.220;2023-06-26T04:48:28;21.82;71.66
65707;SHT31;52423;43.512;5.220;2023-06-26T04:50:54;21.92;71.27
65707;SHT31;52423;43.512;5.220;2023-06-26T04:53:21;21.96;71.03
65707;SHT31;52423;43.512;5.220;2023-06-26T04:55:49;21.84;71.64
65707;SHT31;52423;43.512;5.220;2023-06-26T04:58:14;21.93;71.37
65707;SHT31;52423;43.512;5.220;2023-06-26T05:00:40;21.97;71.36
65707;SHT31;52423;43.512;5.220;2023-06-26T05:03:08;22.17;70.49
65707;SHT31;52423;43.512;5.220;2023-06-26T05:05:34;22.30;70.30
65707;SHT31;52423;43.512;5.220;2023-06-26T05:08:16;22.33;70.32
65707;SHT31;52423;43.512;5.220;2023-06-26T05:10:42;22.42;69.89
65707;SHT31;52423;43.512;5.220;2023-06-26T05:13:08;22.47;69.88
65707;SHT31;52423;43.512;5.220;2023-06-26T05:15:33;22.56;69.76
65707;SHT31;52423;43.512;5.220;2023-06-26T05:17:59;22.55;69.98
65707;SHT31;52423;43.512;5.220;2023-06-26T05:20:24;22.55;70.11
65707;SHT31;52423;43.512;5.220;2023-06-26T05:22:50;22.56;70.21
65707;SHT31;52423;43.512;5.220;2023-06-26T05:25:15;22.48;71.08
65707;SHT31;52423;43.512;5.220;2023-06-26T05:27:41;22.59;70.10
65707;SHT31;52423;43.512;5.220;2023-06-26T05:30:08;22.76;69.83
65707;SHT31;52423;43.512;5.220;2023-06-26T05:32:34;22.77;69.81
65707;SHT31;52423;43.512;5.220;2023-06-26T05:35:02;22.72;69.63
65707;SHT31;52423;43.512;5.220;2023-06-26T05:37:29;22.68;69.67
65707;SHT31;52423;43.512;5.220;2023-06-26T05:39:56;22.72;69.76
65707;SHT31;52423;43.512;5.220;2023-06-26T05:42:21;22.72;69.71
65707;SHT31;52423;43.512;5.220;2023-06-26T05:44:47;22.72;69.55
65707;SHT31;52423;43.512;5.220;2023-06-26T05:47:12;22.75;69.37
65707;SHT31;52423;43.512;5.220;2023-06-26T05:49:38;22.77;69.40
65707;SHT31;52423;43.512;5.220;2023-06-26T05:52:03;22.88;69.43
65707;SHT31;52423;43.512;5.220;2023-06-26T05:54:29;22.95;68.90
65707;SHT31;52423;43.512;5.220;2023-06-26T05:56:57;22.98;68.51
65707;SHT31;52423;43.512;5.220;2023-06-26T05:59:24;23.06;68.46
65707;SHT31;52423;43.512;5.220;2023-06-26T06:01:51;23.16;68.54
65707;SHT31;52423;43.512;5.220;2023-06-26T06:04:17;23.39;67.23
65707;SHT31;52423;43.512;5.220;2023-06-26T06:06:43;23.54;67.49
65707;SHT31;52423;43.512;5.220;2023-06-26T06:09:08;23.67;67.10
65707;SHT31;52423;43.512;5.220;2023-06-26T06:11:33;23.73;67.16
65707;SHT31;52423;43.512;5.220;2023-06-26T06:13:59;23.73;67.16
65707;SHT31;52423;43.512;5.220;2023-06-26T06:16:25;23.78;66.93
65707;SHT31;52423;43.512;5.220;2023-06-26T06:18:51;23.89;66.10
65707;SHT31;52423;43.512;5.220;2023-06-26T06:21:16;23.95;65.62
65707;SHT31;52423;43.512;5.220;2023-06-26T06:23:41;24.11;65.11
65707;SHT31;52423;43.512;5.220;2023-06-26T06:26:07;24.09;65.12
65707;SHT31;52423;43.512;5.220;2023-06-26T06:28:32;24.26;63.63
65707;SHT31;52423;43.512;5.220;2023-06-26T06:30:58;24.26;63.72
65707;SHT31;52423;43.512;5.220;2023-06-26T06:33:23;24.30;63.67
65707;SHT31;52423;43.512;5.220;2023-06-26T06:35:48;24.43;63.62
65707;SHT31;52423;43.512;5.220;2023-06-26T06:38:14;24.52;62.81
65707;SHT31;52423;43.512;5.220;2023-06-26T06:40:39;24.53;63.27
65707;SHT31;52423;43.512;5.220;2023-06-26T06:43:05;24.72;63.09
65707;SHT31;52423;43.512;5.220;2023-06-26T06:45:30;24.74;63.52
65707;SHT31;52423;43.512;5.220;2023-06-26T06:47:55;24.83;62.97
65707;SHT31;52423;43.512;5.220;2023-06-26T06:50:21;24.87;63.07
65707;SHT31;52423;43.512;5.220;2023-06-26T06:52:46;24.93;63.34
65707;SHT31;52423;43.512;5.220;2023-06-26T06:55:12;25.03;62.93
65707;SHT31;52423;43.512;5.220;2023-06-26T06:57:39;25.13;63.31
65707;SHT31;52423;43.512;5.220;2023-06-26T07:00:07;25.32;62.35
65707;SHT31;52423;43.512;5.220;2023-06-26T07:02:41;25.59;61.77
65707;SHT31;52423;43.512;5.220;2023-06-26T07:05:07;25.68;61.32
65707;SHT31;52423;43.512;5.220;2023-06-26T07:07:33;25.82;61.13
65707;SHT31;52423;43.512;5.220;2023-06-26T07:10:07;25.82;60.32
65707;SHT31;52423;43.512;5.220;2023-06-26T07:12:34;25.86;60.05
65707;SHT31;52423;43.512;5.220;2023-06-26T07:15:01;25.97;58.68
65707;SHT31;52423;43.512;5.220;2023-06-26T07:17:26;26.02;59.41
65707;SHT31;52423;43.512;5.220;2023-06-26T07:19:52;26.10;58.88
65707;SHT31;52423;43.512;5.220;2023-06-26T07:22:17;26.14;58.71
65707;SHT31;52423;43.512;5.220;2023-06-26T07:24:46;26.26;57.40
65707;SHT31;52423;43.512;5.220;2023-06-26T07:27:11;26.29;57.62
65707;SHT31;52423;43.512;5.220;2023-06-26T07:29:37;26.34;58.19
65707;SHT31;52423;43.512;5.220;2023-06-26T07:32:02;26.37;58.27
65707;SHT31;52423;43.512;5.220;2023-06-26T07:34:28;26.43;58.70
65707;SHT31;52423;43.512;5.220;2023-06-26T07:36:53;26.50;58.71
65707;SHT31;52423;43.512;5.220;2023-06-26T07:39:19;26.54;56.71
65707;SHT31;52423;43.512;5.220;2023-06-26T07:41:44;26.61;57.53
65707;SHT31;52423;43.512;5.220;2023-06-26T07:44:09;26.90;56.64
65707;SHT31;52423;43.512;5.220;2023-06-26T07:46:35;26.95;56.84
65707;SHT31;52423;43.512;5.220;2023-06-26T07:49:00;26.99;56.60
65707;SHT31;52423;43.512;5.220;2023-06-26T07:51:26;27.01;55.67
65707;SHT31;52423;43.512;5.220;2023-06-26T07:53:51;27.15;54.92
65707;SHT31;52423;43.512;5.220;2023-06-26T07:56:16;27.23;55.51
65707;SHT31;52423;43.512;5.220;2023-06-26T07:58:42;27.31;54.87
65707;SHT31;52423;43.512;5.220;2023-06-26T08:01:07;27.38;54.76
65707;SHT31;52423;43.512;5.220;2023-06-26T08:03:33;27.47;54.38
65707;SHT31;52423;43.512;5.220;2023-06-26T08:05:58;27.63;53.06
65707;SHT31;52423;43.512;5.220;2023-06-26T08:08:23;27.73;53.58
65707;SHT31;52423;43.512;5.220;2023-06-26T08:10:49;27.86;53.43
65707;SHT31;52423;43.512;5.220;2023-06-26T08:13:14;28.03;50.32
65707;SHT31;52423;43.512;5.220;2023-06-26T08:15:40;28.00;51.91
65707;SHT31;52423;43.512;5.220;2023-06-26T08:18:05;28.31;52.14
65707;SHT31;52423;43.512;5.220;2023-06-26T08:20:31;28.54;51.36
65707;SHT31;52423;43.512;5.220;2023-06-26T08:22:56;28.47;51.30
65707;SHT31;52423;43.512;5.220;2023-06-26T08:25:22;28.68;50.42
65707;SHT31;52423;43.512;5.220;2023-06-26T08:27:47;28.80;51.07
65707;SHT31;52423;43.512;5.220;2023-06-26T08:30:13;28.95;50.20
65707;SHT31;52423;43.512;5.220;2023-06-26T08:32:39;28.99;49.97
65707;SHT31;52423;43.512;5.220;2023-06-26T08:35:06;28.95;49.42
65707;SHT31;52423;43.512;5.220;2023-06-26T08:37:31;28.88;48.25
65707;SHT31;52423;43.512;5.220;2023-06-26T08:40:00;28.86;49.11
65707;SHT31;52423;43.512;5.220;2023-06-26T08:42:26;28.88;49.45
65707;SHT31;52423;43.512;5.220;2023-06-26T08:44:51;28.79;50.19
65707;SHT31;52423;43.512;5.220;2023-06-26T08:47:18;29.16;49.76
65707;SHT31;52423;43.512;5.220;2023-06-26T08:49:53;29.31;48.50
65707;SHT31;52423;43.512;5.220;2023-06-26T08:52:28;29.17;49.07
65707;SHT31;52423;43.512;5.220;2023-06-26T08:54:58;29.19;49.35
65707;SHT31;52423;43.512;5.220;2023-06-26T08:57:25;29.27;47.57
65707;SHT31;52423;43.512;5.220;2023-06-26T08:59:52;29.34;48.95
65707;SHT31;52423;43.512;5.220;2023-06-26T09:02:18;29.54;47.49
65707;SHT31;52423;43.512;5.220;2023-06-26T09:04:47;29.58;47.57
65707;SHT31;52423;43.512;5.220;2023-06-26T09:07:13;29.58;47.78
65707;SHT31;52423;43.512;5.220;2023-06-26T09:09:39;29.82;47.32
65707;SHT31;52423;43.512;5.220;2023-06-26T09:12:04;29.89;46.27
65707;SHT31;52423;43.512;5.220;2023-06-26T09:14:30;30.15;46.53
65707;SHT31;52423;43.512;5.220;2023-06-26T09:16:56;30.15;47.74
65707;SHT31;52423;43.512;5.220;2023-06-26T09:19:21;30.16;45.94
65707;SHT31;52423;43.512;5.220;2023-06-26T09:21:49;30.29;47.76
65707;SHT31;52423;43.512;5.220;2023-06-26T09:24:16;30.28;45.73
65707;SHT31;52423;43.512;5.220;2023-06-26T09:26:41;30.25;46.08
65707;SHT31;52423;43.512;5.220;2023-06-26T09:29:09;30.44;45.88
65707;SHT31;52423;43.512;5.220;2023-06-26T09:31:38;30.56;45.77
65707;SHT31;52423;43.512;5.220;2023-06-26T09:34:04;30.67;44.86
65707;SHT31;52423;43.512;5.220;2023-06-26T09:36:30;30.63;45.55
65707;SHT31;52423;43.512;5.220;2023-06-26T09:39:07;30.81;44.72
65707;SHT31;52423;43.512;5.220;2023-06-26T09:41:36;30.84;44.63
65707;SHT31;52423;43.512;5.220;2023-06-26T09:44:05;30.94;44.07
65707;SHT31;52423;43.512;5.220;2023-06-26T09:46:31;31.04;43.17
65707;SHT31;52423;43.512;5.220;2023-06-26T09:49:07;31.20;44.48
65707;SHT31;52423;43.512;5.220;2023-06-26T09:51:34;31.24;42.91
65707;SHT31;52423;43.512;5.220;2023-06-26T09:54:00;31.24;42.73
65707;SHT31;52423;43.512;5.220;2023-06-26T09:56:27;31.28;43.37
65707;SHT31;52423;43.512;5.220;2023-06-26T09:58:55;31.35;43.33
65707;SHT31;52423;43.512;5.220;2023-06-26T10:01:21;31.37;44.04
65707;SHT31;52423;43.512;5.220;2023-06-26T10:03:47;31.45;43.02
65707;SHT31;52423;43.512;5.220;2023-06-26T10:06:12;31.58;44.27
65707;SHT31;52423;43.512;5.220;2023-06-26T10:08:39;31.61;41.64
65707;SHT31;52423;43.512;5.220;2023-06-26T10:11:08;31.63;41.60
65707;SHT31;52423;43.512;5.220;2023-06-26T10:13:38;31.69;42.84
65707;SHT31;52423;43.512;5.220;2023-06-26T10:16:07;31.81;41.80
65707;SHT31;52423;43.512;5.220;2023-06-26T10:18:35;31.97;42.19
65707;SHT31;52423;43.512;5.220;2023-06-26T10:21:02;32.08;41.03
65707;SHT31;52423;43.512;5.220;2023-06-26T10:23:30;32.16;40.73
65707;SHT31;52423;43.512;5.220;2023-06-26T10:25:58;32.20;41.13
65707;SHT31;52423;43.512;5.220;2023-06-26T10:28:26;32.27;39.82
65707;SHT31;52423;43.512;5.220;2023-06-26T10:30:54;32.34;39.40
65707;SHT31;52423;43.512;5.220;2023-06-26T10:33:20;32.41;39.61
65707;SHT31;52423;43.512;5.220;2023-06-26T10:35:46;32.40;40.37
65707;SHT31;52423;43.512;5.220;2023-06-26T10:38:11;32.57;38.54
65707;SHT31;52423;43.512;5.220;2023-06-26T10:40:45;32.50;39.72
65707;SHT31;52423;43.512;5.220;2023-06-26T10:43:14;32.49;39.87
65707;SHT31;52423;43.512;5.220;2023-06-26T10:45:48;32.60;40.54
65707;SHT31;52423;43.512;5.220;2023-06-26T10:48:18;32.67;38.74
65707;SHT31;52423;43.512;5.220;2023-06-26T10:50:47;32.68;39.30
65707;SHT31;52423;43.512;5.220;2023-06-26T10:56:00;32.91;39.61
65707;SHT31;52423;43.512;5.220;2023-06-26T10:58:47;33.05;39.75
65707;SHT31;52423;43.512;5.220;2023-06-26T11:01:25;33.08;39.38
65707;SHT31;52423;43.512;5.220;2023-06-26T11:04:00;33.02;38.22
65707;SHT31;52423;43.512;5.220;2023-06-26T11:06:29;33.19;37.56
65707;SHT31;52423;43.512;5.220;2023-06-26T11:14:24;33.33;38.09
65707;SHT31;52423;43.512;5.220;2023-06-26T11:16:50;33.31;37.22
65707;SHT31;52423;43.512;5.220;2023-06-26T11:19:17;33.32;36.67
65707;SHT31;52423;43.512;5.220;2023-06-26T11:21:43;33.42;36.33
65707;SHT31;52423;43.512;5.220;2023-06-26T11:24:10;33.53;35.91
65707;SHT31;52423;43.512;5.220;2023-06-26T11:26:40;33.48;36.79
65707;SHT31;52423;43.512;5.220;2023-06-26T11:29:06;33.66;37.05
65707;SHT31;52423;43.512;5.220;2023-06-26T11:31:36;33.56;36.73
65707;SHT31;52423;43.512;5.220;2023-06-26T11:34:05;33.50;37.77
65707;SHT31;52423;43.512;5.220;2023-06-26T11:36:32;33.60;38.20
65707;SHT31;52423;43.512;5.220;2023-06-26T11:39:01;33.72;37.84
65707;SHT31;52423;43.512;5.220;2023-06-26T11:41:30;33.74;38.25
65707;SHT31;52423;43.512;5.220;2023-06-26T11:44:00;34.03;38.06
65707;SHT31;52423;43.512;5.220;2023-06-26T11:46:27;34.14;38.00
65707;SHT31;52423;43.512;5.220;2023-06-26T11:48:53;34.27;37.75
65707;SHT31;52423;43.512;5.220;2023-06-26T11:51:19;34.23;36.97
65707;SHT31;52423;43.512;5.220;2023-06-26T11:53:46;34.18;36.58
65707;SHT31;52423;43.512;5.220;2023-06-26T11:56:13;34.11;36.80
65707;SHT31;52423;43.512;5.220;2023-06-26T11:59:01;34.07;36.32
65707;SHT31;52423;43.512;5.220;2023-06-26T12:01:41;34.14;37.19
65707;SHT31;52423;43.512;5.220;2023-06-26T12:04:09;34.33;37.10
65707;SHT31;52423;43.512;5.220;2023-06-26T12:06:36;34.43;37.30
65707;SHT31;52423;43.512;5.220;2023-06-26T12:09:05;34.36;36.30
65707;SHT31;52423;43.512;5.220;2023-06-26T12:11:32;34.50;36.98
65707;SHT31;52423;43.512;5.220;2023-06-26T12:13:59;34.31;37.99
65707;SHT31;52423;43.512;5.220;2023-06-26T12:16:24;34.45;37.45
65707;SHT31;52423;43.512;5.220;2023-06-26T12:18:51;34.57;36.93
65707;SHT31;52423;43.512;5.220;2023-06-26T12:24:04;34.62;36.85
65707;SHT31;52423;43.512;5.220;2023-06-26T12:26:31;34.62;35.89
65707;SHT31;52423;43.512;5.220;2023-06-26T12:29:06;34.50;36.07
65707;SHT31;52423;43.512;5.220;2023-06-26T12:31:32;34.71;36.38
65707;SHT31;52423;43.512;5.220;2023-06-26T12:33:58;34.64;36.03
65707;SHT31;52423;43.512;5.220;2023-06-26T12:36:24;34.77;36.76
65707;SHT31;52423;43.512;5.220;2023-06-26T12:38:50;34.72;35.88
65707;SHT31;52423;43.512;5.220;2023-06-26T12:41:15;34.75;35.84
65707;SHT31;52423;43.512;5.220;2023-06-26T12:43:42;34.69;35.91
65707;SHT31;52423;43.512;5.220;2023-06-26T12:46:08;34.84;35.25
65707;SHT31;52423;43.512;5.220;2023-06-26T12:48:41;34.79;34.11
65707;SHT31;52423;43.512;5.220;2023-06-26T12:51:12;34.81;35.21
65707;SHT31;52423;43.512;5.220;2023-06-26T12:53:39;34.78;35.36
65707;SHT31;52423;43.512;5.220;2023-06-26T12:56:10;34.77;35.15
65707;SHT31;52423;43.512;5.220;2023-06-26T12:58:37;35.02;35.18
65707;SHT31;52423;43.512;5.220;2023-06-26T13:01:04;35.00;34.86
65707;SHT31;52423;43.512;5.220;2023-06-26T13:03:30;35.08;34.33
65707;SHT31;52423;43.512;5.220;2023-06-26T13:05:55;35.13;34.64
65707;SHT31;52423;43.512;5.220;2023-06-26T13:08:21;35.13;32.47
65707;SHT31;52423;43.512;5.220;2023-06-26T13:10:46;35.06;32.85
65707;SHT31;52423;43.512;5.220;2023-06-26T13:13:11;34.95;33.04
65707;SHT31;52423;43.512;5.220;2023-06-26T13:15:37;35.08;31.87
65707;SHT31;52423;43.512;5.220;2023-06-26T13:18:03;35.08;31.74
65707;SHT31;52423;43.512;5.220;2023-06-26T13:20:28;35.18;33.17
65707;SHT31;52423;43.512;5.220;2023-06-26T13:22:55;35.05;32.53
65707;SHT31;52423;43.512;5.220;2023-06-26T13:25:21;34.96;32.94
65707;SHT31;52423;43.512;5.220;2023-06-26T13:27:46;35.06;31.95
65707;SHT31;52423;43.512;5.220;2023-06-26T13:30:13;35.06;32.40
65707;SHT31;52423;43.512;5.220;2023-06-26T13:32:39;35.09;31.42
65707;SHT31;52423;43.512;5.220;2023-06-26T13:35:05;35.12;30.60
65707;SHT31;52423;43.512;5.220;2023-06-26T13:37:31;35.03;30.95
65707;SHT31;52423;43.512;5.220;2023-06-26T13:39:57;34.91;33.12
65707;SHT31;52423;43.512;5.220;2023-06-26T13:42:24;34.98;31.26
65707;SHT31;52423;43.512;5.220;2023-06-26T13:44:50;35.02;30.44
65707;SHT31;52423;43.512;5.220;2023-06-26T13:47:15;34.91;30.91
65707;SHT31;52423;43.512;5.220;2023-06-26T13:49:41;34.96;31.24
65707;SHT31;52423;43.512;5.220;2023-06-26T13:52:06;35.06;31.24
65707;SHT31;52423;43.512;5.220;2023-06-26T13:54:36;35.19;30.92
65707;SHT31;52423;43.512;5.220;2023-06-26T13:57:04;35.10;28.66
65707;SHT31;52423;43.512;5.220;2023-06-26T13:59:30;35.12;29.41
65707;SHT31;52423;43.512;5.220;2023-06-26T14:01:56;35.03;28.82
65707;SHT31;52423;43.512;5.220;2023-06-26T14:04:21;35.09;29.78
65707;SHT31;52423;43.512;5.220;2023-06-26T14:06:47;35.05;29.17
65707;SHT31;52423;43.512;5.220;2023-06-26T14:09:13;35.08;29.02
65707;SHT31;52423;43.512;5.220;2023-06-26T14:11:38;35.02;29.38
65707;SHT31;52423;43.512;5.220;2023-06-26T14:14:04;35.13;28.02
65707;SHT31;52423;43.512;5.220;2023-06-26T14:16:29;35.09;27.75
65707;SHT31;52423;43.512;5.220;2023-06-26T14:18:55;35.20;28.21
65707;SHT31;52423;43.512;5.220;2023-06-26T14:21:20;35.18;28.19
65707;SHT31;52423;43.512;5.220;2023-06-26T14:23:46;35.10;28.93
65707;SHT31;52423;43.512;5.220;2023-06-26T14:26:11;35.23;28.72
65707;SHT31;52423;43.512;5.220;2023-06-26T14:28:38;35.40;29.47
65707;SHT31;52423;43.512;5.220;2023-06-26T14:31:04;35.39;27.58
65707;SHT31;52423;43.512;5.220;2023-06-26T14:33:30;35.29;28.31
65707;SHT31;52423;43.512;5.220;2023-06-26T14:35:56;35.28;28.38
65707;SHT31;52423;43.512;5.220;2023-06-26T14:38:21;35.25;28.94
65707;SHT31;52423;43.512;5.220;2023-06-26T14:40:46;35.28;28.92
65707;SHT31;52423;43.512;5.220;2023-06-26T14:43:12;35.12;29.83
65707;SHT31;52423;43.512;5.220;2023-06-26T14:45:37;35.26;29.48
65707;SHT31;52423;43.512;5.220;2023-06-26T14:48:03;35.12;29.15
65707;SHT31;52423;43.512;5.220;2023-06-26T14:50:28;35.19;29.43
65707;SHT31;52423;43.512;5.220;2023-06-26T14:52:54;34.96;28.04
65707;SHT31;52423;43.512;5.220;2023-06-26T14:55:19;34.91;28.93
65707;SHT31;52423;43.512;5.220;2023-06-26T14:57:45;34.88;29.33
65707;SHT31;52423;43.512;5.220;2023-06-26T15:00:10;35.06;29.55
65707;SHT31;52423;43.512;5.220;2023-06-26T15:02:36;35.05;29.15
65707;SHT31;52423;43.512;5.220;2023-06-26T15:05:02;35.09;29.92
65707;SHT31;52423;43.512;5.220;2023-06-26T15:07:27;35.10;29.00
65707;SHT31;52423;43.512;5.220;2023-06-26T15:09:53;35.13;29.26
65707;SHT31;52423;43.512;5.220;2023-06-26T15:12:18;35.16;28.90
65707;SHT31;52423;43.512;5.220;2023-06-26T15:14:44;35.09;27.69
65707;SHT31;52423;43.512;5.220;2023-06-26T15:17:09;35.02;28.19
65707;SHT31;52423;43.512;5.220;2023-06-26T15:19:36;35.00;28.01
65707;SHT31;52423;43.512;5.220;2023-06-26T15:22:01;34.91;29.26
65707;SHT31;52423;43.512;5.220;2023-06-26T15:24:27;34.91;29.57
65707;SHT31;52423;43.512;5.220;2023-06-26T15:26:53;34.95;28.87
65707;SHT31;52423;43.512;5.220;2023-06-26T15:29:18;34.79;29.14
65707;SHT31;52423;43.512;5.220;2023-06-26T15:31:44;34.91;29.71
65707;SHT31;52423;43.512;5.220;2023-06-26T15:34:09;34.78;30.01
65707;SHT31;52423;43.512;5.220;2023-06-26T15:36:35;34.77;28.95
65707;SHT31;52423;43.512;5.220;2023-06-26T15:39:00;34.58;29.91